createdAt,value
2018-11-04T00:00:21.004Z,46.10
2018-11-04T00:02:59.585Z,43.77
2018-11-04T00:05:36.529Z,46.60
2018-11-04T00:08:14.636Z,45.40
2018-11-04T00:10:54.588Z,41.57
2018-11-04T00:13:33.148Z,43.23
2018-11-04T00:16:13.289Z,42.93
2018-11-04T00:18:49.668Z,44.17
2018-11-04T00:21:26.798Z,42.03
2018-11-04T00:24:02.627Z,40.63
2018-11-04T00:26:38.785Z,45.45
2018-11-04T00:29:15.669Z,43.80
2018-11-04T00:31:53.152Z,45.87
2018-11-04T00:34:29.328Z,47.75
2018-11-04T00:37:09.960Z,45.85
2018-11-04T00:39:48.805Z,42.57
2018-11-04T00:42:28.454Z,47.87
2018-11-04T00:45:06.811Z,48.60
2018-11-04T00:47:44.483Z,50.50
2018-11-04T00:50:20.972Z,48.52
2018-11-04T00:52:58.789Z,46.80
2018-11-04T00:55:40.091Z,45.70
2018-11-04T00:58:17.598Z,47.40
2018-11-04T01:00:54.056Z,46.40
2018-11-04T01:03:31.066Z,47.23
2018-11-04T01:06:09.255Z,47.70
2018-11-04T01:08:48.769Z,42.47
2018-11-04T01:11:26.426Z,47.37
2018-11-04T01:14:04.270Z,45.67
2018-11-04T01:16:44.549Z,44.50
2018-11-04T01:19:22.619Z,42.77
2018-11-04T01:21:58.724Z,46.53
2018-11-04T01:24:34.995Z,46.20
2018-11-04T01:27:10.990Z,47.98
2018-11-04T01:29:47.986Z,45.90
2018-11-04T01:32:23.291Z,48.27
2018-11-04T01:34:59.118Z,47.50
2018-11-04T01:37:36.093Z,43.60
2018-11-04T01:40:13.588Z,46.57
2018-11-04T01:42:50.239Z,46.97
2018-11-04T01:45:28.253Z,45.53
2018-11-04T01:48:01.625Z,43.83
2018-11-04T01:50:31.265Z,45.47
2018-11-04T01:53:00.776Z,45.20
2018-11-04T01:55:30.278Z,49.07
2018-11-04T01:57:59.823Z,43.63
2018-11-04T02:00:29.316Z,47.57
2018-11-04T02:02:59.717Z,49.33
2018-11-04T02:05:29.274Z,45.30
2018-11-04T02:07:58.878Z,47.50
2018-11-04T02:10:28.385Z,47.00
2018-11-04T02:12:57.947Z,49.13
2018-11-04T02:15:27.522Z,48.83
2018-11-04T02:17:57.085Z,48.77
2018-11-04T02:20:26.681Z,50.37
2018-11-04T02:22:56.290Z,49.07
2018-11-04T02:25:25.839Z,49.07
2018-11-04T02:27:55.370Z,48.50
2018-11-04T02:30:24.815Z,47.63
2018-11-04T02:32:54.417Z,49.98
2018-11-04T02:35:24.018Z,43.35
2018-11-04T02:40:37.336Z,51.20
2018-11-04T02:43:06.848Z,50.93
2018-11-04T02:45:36.322Z,48.33
2018-11-04T02:48:06.183Z,47.78
2018-11-04T02:50:35.665Z,48.87
2018-11-04T02:53:06.597Z,51.44
2018-11-04T02:55:36.147Z,51.07
2018-11-04T02:58:06.600Z,48.85
2018-11-04T03:00:36.156Z,49.00
2018-11-04T03:03:06.916Z,51.48
2018-11-04T03:05:36.381Z,49.30
2018-11-04T03:08:06.130Z,52.90
2018-11-04T03:10:35.630Z,49.83
2018-11-04T03:13:06.420Z,50.48
2018-11-04T03:15:35.915Z,51.37
2018-11-04T03:18:06.241Z,47.67
2018-11-04T03:20:35.780Z,49.90
2018-11-04T03:23:06.561Z,49.57
2018-11-04T03:25:36.015Z,51.20
2018-11-04T03:28:07.541Z,53.17
2018-11-04T03:30:37.451Z,51.53
2018-11-04T03:33:07.624Z,51.47
2018-11-04T03:35:37.283Z,48.30
2018-11-04T03:38:07.449Z,52.97
2018-11-04T03:40:37.034Z,48.77
2018-11-04T03:43:06.810Z,53.27
2018-11-04T03:45:36.280Z,52.77
2018-11-04T03:48:06.570Z,50.83
2018-11-04T03:50:36.131Z,52.63
2018-11-04T03:53:07.669Z,48.38
2018-11-04T03:55:38.120Z,54.10
2018-11-04T03:58:07.639Z,53.60
2018-11-04T04:00:37.296Z,54.63
2018-11-04T04:03:06.840Z,52.47
2018-11-04T04:05:36.461Z,46.73
2018-11-04T04:08:06.560Z,52.67
2018-11-04T04:10:36.061Z,52.07
2018-11-04T04:13:05.871Z,52.67
2018-11-04T04:15:35.340Z,50.03
2018-11-04T04:18:06.061Z,54.60
2018-11-04T04:20:35.597Z,53.90
2018-11-04T04:23:06.347Z,54.24
2018-11-04T04:25:35.938Z,54.73
2018-11-04T04:28:06.318Z,52.83
2018-11-04T04:30:36.826Z,53.77
2018-11-04T04:33:06.815Z,55.58
2018-11-04T04:35:36.368Z,48.77
2018-11-04T04:38:06.872Z,54.27
2018-11-04T04:40:36.414Z,54.90
2018-11-04T04:43:07.657Z,56.10
2018-11-04T04:45:37.164Z,55.27
2018-11-04T04:48:06.946Z,53.67
2018-11-04T04:50:36.469Z,53.60
2018-11-04T04:53:07.019Z,54.48
2018-11-04T04:55:36.479Z,54.77
2018-11-04T04:58:13.201Z,54.40
2018-11-04T05:00:42.531Z,54.27
2018-11-04T05:03:11.841Z,54.83
2018-11-04T05:05:41.190Z,56.90
2018-11-04T05:08:10.547Z,49.77
2018-11-04T05:10:39.866Z,56.50
2018-11-04T05:13:09.198Z,54.50
2018-11-04T05:15:38.520Z,54.30
2018-11-04T05:18:08.306Z,49.83
2018-11-04T05:20:37.687Z,52.47
2018-11-04T05:23:07.409Z,57.43
2018-11-04T05:25:36.771Z,54.47
2018-11-04T05:28:06.794Z,55.88
2018-11-04T05:30:36.271Z,57.83
2018-11-04T05:33:06.396Z,52.10
2018-11-04T05:35:35.776Z,55.13
2018-11-04T05:38:06.355Z,59.20
2018-11-04T05:40:35.691Z,58.63
2018-11-04T05:43:06.153Z,58.98
2018-11-04T05:45:48.731Z,57.93
2018-11-04T05:48:18.847Z,51.00
2018-11-04T05:50:48.165Z,52.70
2018-11-04T05:53:17.497Z,52.03
2018-11-04T05:55:46.835Z,56.67
2018-11-04T05:58:16.382Z,57.70
2018-11-04T06:00:51.485Z,57.17
2018-11-04T06:03:21.060Z,59.63
2018-11-04T06:05:50.626Z,55.40
2018-11-04T06:08:20.134Z,52.43
2018-11-04T06:10:49.680Z,58.80
2018-11-04T06:13:19.243Z,59.13
2018-11-04T06:15:48.787Z,58.47
2018-11-04T06:18:18.703Z,61.43
2018-11-04T06:20:48.281Z,61.30
2018-11-04T06:23:17.888Z,49.97
2018-11-04T06:25:47.375Z,58.40
2018-11-04T06:28:16.879Z,58.90
2018-11-04T06:30:46.364Z,56.20
2018-11-04T06:33:15.813Z,55.80
2018-11-04T06:35:45.372Z,61.23
2018-11-04T06:38:14.847Z,60.40
2018-11-04T06:40:44.410Z,59.17
2018-11-04T06:43:13.915Z,54.67
2018-11-04T06:45:43.427Z,58.13
2018-11-04T06:48:12.938Z,55.80
2018-11-04T06:50:42.553Z,60.07
2018-11-04T06:53:12.038Z,58.50
2018-11-04T06:55:41.554Z,57.67
2018-11-04T06:58:11.247Z,60.40
2018-11-04T07:00:40.865Z,57.73
2018-11-04T07:03:10.374Z,59.87
2018-11-04T07:08:21.362Z,56.93
2018-11-04T07:10:54.321Z,59.53
2018-11-04T07:13:23.943Z,53.60
2018-11-04T07:15:53.462Z,60.53
2018-11-04T07:18:23.062Z,58.05
2018-11-04T07:20:52.606Z,61.20
2018-11-04T07:23:22.182Z,62.00
2018-11-04T07:25:51.793Z,58.70
2018-11-04T07:28:21.499Z,54.50
2018-11-04T07:30:51.099Z,56.00
2018-11-04T07:33:20.599Z,60.77
2018-11-04T07:35:50.208Z,57.10
2018-11-04T07:38:21.019Z,57.50
2018-11-04T07:41:03.866Z,54.80
2018-11-04T07:43:33.663Z,56.90
2018-11-04T07:46:31.748Z,57.03
2018-11-04T07:52:07.091Z,56.37
2018-11-04T07:54:36.610Z,60.77
2018-11-04T07:57:06.352Z,60.83
2018-11-04T07:59:35.737Z,56.80
2018-11-04T08:02:06.164Z,61.48
2018-11-04T08:04:35.616Z,61.20
2018-11-04T08:07:41.071Z,52.87
2018-11-04T08:10:12.196Z,58.15
2018-11-04T08:12:42.160Z,59.45
2018-11-04T08:15:12.139Z,57.73
2018-11-04T08:17:46.861Z,60.07
2018-11-04T08:20:16.382Z,59.77
2018-11-04T08:22:45.767Z,57.47
2018-11-04T08:25:15.250Z,56.47
2018-11-04T08:27:46.593Z,57.43
2018-11-04T08:30:16.340Z,59.53
2018-11-04T08:32:45.818Z,59.20
2018-11-04T08:35:15.246Z,59.60
2018-11-04T08:37:44.695Z,57.20
2018-11-04T08:40:15.564Z,58.43
2018-11-04T08:42:47.713Z,54.73
2018-11-04T08:45:17.242Z,58.13
2018-11-04T08:48:17.401Z,56.73
2018-11-04T08:50:46.831Z,58.60
2018-11-04T08:53:16.265Z,53.63
2018-11-04T08:55:45.626Z,57.87
2018-11-04T08:58:15.090Z,57.30
2018-11-04T09:00:44.437Z,60.73
2018-11-04T09:03:13.815Z,58.93
2018-11-04T09:05:43.241Z,56.30
2018-11-04T09:08:20.313Z,57.87
2018-11-04T09:10:49.691Z,53.30
2018-11-04T09:13:19.098Z,57.78
2018-11-04T09:15:48.568Z,56.10
2018-11-04T09:18:17.938Z,57.97
2018-11-04T09:20:47.381Z,55.23
2018-11-04T09:23:16.806Z,54.73
2018-11-04T09:25:46.185Z,55.53
2018-11-04T09:28:15.757Z,56.83
2018-11-04T09:30:45.252Z,57.10
2018-11-04T09:33:14.710Z,54.40
2018-11-04T09:35:44.473Z,51.97
2018-11-04T09:38:13.718Z,55.23
2018-11-04T09:40:43.095Z,55.38
2018-11-04T09:43:12.423Z,56.80
2018-11-04T09:45:41.815Z,52.73
2018-11-04T09:48:11.251Z,53.05
2018-11-04T09:50:44.041Z,56.13
2018-11-04T09:53:23.688Z,53.42
2018-11-04T09:55:53.183Z,52.77
2018-11-04T09:58:22.554Z,54.27
2018-11-04T10:00:51.982Z,53.07
2018-11-04T10:03:50.378Z,51.80
2018-11-04T10:06:21.752Z,52.85
2018-11-04T10:08:51.169Z,53.17
2018-11-04T10:11:20.608Z,51.97
2018-11-04T10:13:50.138Z,49.30
2018-11-04T10:16:32.426Z,52.03
2018-11-04T10:19:01.918Z,51.93
2018-11-04T10:21:31.826Z,52.60
2018-11-04T10:24:06.397Z,50.13
2018-11-04T10:26:36.940Z,50.23
2018-11-04T10:29:06.809Z,53.50
2018-11-04T10:31:36.199Z,51.80
2018-11-04T10:34:28.346Z,49.87
2018-11-04T10:36:57.700Z,51.90
2018-11-04T10:39:27.149Z,51.67
2018-11-04T10:41:56.467Z,49.00
2018-11-04T10:44:26.653Z,49.93
2018-11-04T10:46:56.009Z,48.03
2018-11-04T10:49:25.445Z,49.97
2018-11-04T10:51:54.740Z,47.40
2018-11-04T10:54:24.100Z,48.87
2018-11-04T10:56:53.437Z,48.43
2018-11-04T10:59:22.800Z,48.87
2018-11-04T11:01:52.156Z,48.47
2018-11-04T11:04:21.507Z,46.53
2018-11-04T11:06:50.929Z,47.73
2018-11-04T11:09:20.321Z,47.13
2018-11-04T11:11:49.678Z,45.57
2018-11-04T11:14:19.007Z,45.48
2018-11-04T11:16:49.216Z,46.90
2018-11-04T11:19:18.583Z,46.88
2018-11-04T11:21:47.943Z,44.87
2018-11-04T11:24:17.308Z,44.47
2018-11-04T11:26:46.641Z,46.73
2018-11-04T11:29:16.008Z,42.58
2018-11-04T11:31:45.351Z,45.13
2018-11-04T11:34:14.728Z,46.03
2018-11-04T11:36:44.075Z,43.15
2018-11-04T11:39:14.287Z,40.40
2018-11-04T11:41:46.282Z,44.60
2018-11-04T11:44:22.986Z,43.63
2018-11-04T11:46:53.284Z,44.13
2018-11-04T11:49:22.662Z,42.43
2018-11-04T11:51:52.059Z,44.43
2018-11-04T11:54:21.567Z,40.23
2018-11-04T11:56:50.894Z,42.13
2018-11-04T11:59:20.263Z,40.43
2018-11-04T12:01:49.556Z,40.40
2018-11-04T12:04:18.896Z,40.90
2018-11-04T12:06:48.248Z,39.25
2018-11-04T12:09:20.343Z,39.83
2018-11-04T12:11:49.770Z,41.33
2018-11-04T12:14:19.169Z,38.77
2018-11-04T12:16:48.594Z,38.70
2018-11-04T12:19:19.242Z,39.83
2018-11-04T12:21:48.646Z,37.77
2018-11-04T12:24:18.047Z,38.03
2018-11-04T12:26:47.366Z,36.53
2018-11-04T12:29:16.739Z,39.33
2018-11-04T12:31:46.124Z,37.00
2018-11-04T12:34:16.045Z,36.05
2018-11-04T12:36:54.682Z,37.10
2018-11-04T12:39:24.120Z,35.50
2018-11-04T12:41:53.451Z,35.73
2018-11-04T12:44:22.960Z,34.07
2018-11-04T12:46:52.363Z,33.60
2018-11-04T12:49:22.591Z,33.92
2018-11-04T12:51:52.691Z,32.27
2018-11-04T12:54:22.099Z,30.67
2018-11-04T12:56:51.440Z,31.30
2018-11-04T12:59:20.993Z,29.80
2018-11-04T13:02:01.195Z,29.67
2018-11-04T13:04:30.639Z,29.57
2018-11-04T13:07:07.306Z,28.90
2018-11-04T13:09:44.383Z,29.83
2018-11-04T13:12:13.794Z,32.33
2018-11-04T13:14:43.149Z,34.73
2018-11-04T13:17:12.583Z,30.90
2018-11-04T13:19:43.463Z,32.60
2018-11-04T13:22:22.627Z,30.52
2018-11-04T13:24:51.960Z,30.92
2018-11-04T13:27:21.359Z,30.60
2018-11-04T13:29:50.718Z,29.57
2018-11-04T13:35:37.252Z,28.57
2018-11-04T13:51:48.553Z,30.00
2018-11-04T13:54:27.057Z,29.07
2018-11-04T13:56:56.433Z,30.40
2018-11-04T13:59:25.778Z,29.90
2018-11-04T14:01:55.112Z,29.83
2018-11-04T14:04:26.650Z,30.10
2018-11-04T14:06:56.083Z,29.83
2018-11-04T14:09:25.431Z,28.70
2018-11-04T14:11:54.779Z,29.47
2018-11-04T14:14:24.127Z,30.37
2018-11-04T14:16:53.512Z,30.53
2018-11-04T14:19:23.701Z,31.37
2018-11-04T14:22:05.375Z,29.47
2018-11-04T14:24:34.735Z,29.17
2018-11-04T14:29:48.254Z,30.47
2018-11-04T14:32:17.788Z,31.30
2018-11-04T14:34:47.162Z,29.37
2018-11-04T14:37:16.582Z,30.10
2018-11-04T14:39:49.853Z,29.67
2018-11-04T14:42:19.206Z,29.72
2018-11-04T14:44:56.817Z,29.43
2018-11-04T14:47:48.314Z,27.70
2018-11-04T14:50:19.010Z,30.52
2018-11-04T14:52:48.990Z,31.10
2018-11-04T14:55:22.521Z,32.83
2018-11-04T14:57:57.459Z,33.23
2018-11-04T15:00:45.089Z,31.67
2018-11-04T15:03:14.469Z,31.17
2018-11-04T15:05:43.860Z,31.50
2018-11-04T15:08:13.182Z,32.80
2018-11-04T15:10:42.558Z,32.70
2018-11-04T15:13:13.693Z,32.20
2018-11-04T15:15:43.059Z,31.63
2018-11-04T15:18:18.390Z,32.80
2018-11-04T15:20:51.780Z,31.97
2018-11-04T15:23:23.022Z,33.25
2018-11-04T15:25:55.994Z,32.17
2018-11-04T15:28:25.325Z,31.97
2018-11-04T15:30:58.233Z,32.23
2018-11-04T15:33:30.441Z,32.63
2018-11-04T15:36:07.859Z,33.10
2018-11-04T15:38:37.244Z,35.23
2018-11-04T15:41:09.080Z,34.16
2018-11-04T15:43:39.114Z,35.00
2018-11-04T15:46:09.000Z,36.00
2018-11-04T15:48:38.379Z,36.40
2018-11-04T15:51:07.749Z,37.97
2018-11-04T15:53:37.105Z,37.83
2018-11-04T15:56:54.708Z,39.76
2018-11-04T15:59:28.241Z,38.00
2018-11-04T16:01:57.580Z,39.47
2018-11-04T16:04:26.959Z,38.10
2018-11-04T16:06:58.410Z,38.23
2018-11-04T16:09:27.821Z,38.13
2018-11-04T16:11:57.207Z,38.53
2018-11-04T16:14:26.585Z,37.13
2018-11-04T16:16:55.930Z,36.17
2018-11-04T16:19:25.288Z,33.40
2018-11-04T16:21:54.817Z,37.03
2018-11-04T16:24:25.913Z,36.30
2018-11-04T16:27:10.070Z,37.30
2018-11-04T16:29:42.487Z,36.60
2018-11-04T16:32:13.508Z,35.03
2018-11-04T16:34:42.744Z,34.53
2018-11-04T16:37:12.160Z,43.70
2018-11-04T16:39:41.543Z,35.67
2018-11-04T16:42:10.907Z,37.30
2018-11-04T16:44:40.591Z,37.53
2018-11-04T16:47:10.101Z,36.50
2018-11-04T16:49:39.644Z,36.63
2018-11-04T16:52:09.205Z,35.97
2018-11-04T16:54:47.384Z,37.60
2018-11-04T16:57:22.568Z,38.27
2018-11-04T16:59:52.341Z,36.90
2018-11-04T17:02:44.784Z,38.77
2018-11-04T17:05:14.620Z,38.07
2018-11-04T17:07:44.206Z,38.63
2018-11-04T17:10:15.137Z,40.43
2018-11-04T17:12:44.764Z,40.37
2018-11-04T17:15:15.483Z,37.03
2018-11-04T17:17:45.329Z,39.70
2018-11-04T17:20:17.191Z,39.00
2018-11-04T17:22:47.218Z,40.67
2018-11-04T17:25:16.852Z,40.47
2018-11-04T17:27:46.507Z,38.47
2018-11-04T17:30:21.961Z,41.50
2018-11-04T17:32:57.770Z,40.00
2018-11-04T17:35:27.396Z,38.97
2018-11-04T17:37:56.927Z,40.80
2018-11-04T17:40:26.474Z,41.17
2018-11-04T17:42:56.135Z,40.47
2018-11-04T17:45:25.721Z,40.27
2018-11-04T17:47:55.557Z,39.50
2018-11-04T17:50:25.250Z,39.07
2018-11-04T17:52:58.892Z,39.83
2018-11-04T17:55:28.291Z,42.03
2018-11-04T17:57:57.631Z,41.60
2018-11-04T18:00:26.943Z,42.07
2018-11-04T18:02:56.271Z,41.80
2018-11-04T18:05:25.621Z,42.08
2018-11-04T18:07:55.026Z,42.87
2018-11-04T18:10:24.356Z,39.58
2018-11-04T18:12:53.718Z,42.03
2018-11-04T18:15:23.051Z,43.05
2018-11-04T18:17:52.390Z,41.90
2018-11-04T18:20:21.699Z,42.37
2018-11-04T18:22:51.057Z,41.67
2018-11-04T18:25:20.431Z,43.15
2018-11-04T18:27:49.795Z,42.97
2018-11-04T18:30:19.295Z,43.43
2018-11-04T18:32:48.842Z,39.97
2018-11-04T18:35:18.406Z,42.33
2018-11-04T18:37:48.212Z,42.33
2018-11-04T18:40:18.846Z,42.67
2018-11-04T18:42:48.454Z,43.30
2018-11-04T18:45:18.368Z,45.03
2018-11-04T18:47:47.973Z,43.63
2018-11-04T18:50:17.841Z,46.67
2018-11-04T18:52:47.647Z,44.73
2018-11-04T18:55:17.286Z,46.03
2018-11-04T18:57:46.817Z,43.80
2018-11-04T19:00:17.754Z,45.47
2018-11-04T19:02:48.259Z,44.47
2018-11-04T19:05:17.826Z,43.90
2018-11-04T19:07:47.435Z,43.43
2018-11-04T19:10:18.716Z,44.35
2018-11-04T19:12:48.442Z,46.00
2018-11-04T19:15:19.333Z,44.23
2018-11-04T19:17:49.102Z,45.40
2018-11-04T19:20:18.717Z,45.00
2018-11-04T19:22:48.410Z,46.43
2018-11-04T19:25:17.915Z,46.42
2018-11-04T19:27:47.504Z,44.20
2018-11-04T19:30:17.950Z,45.35
2018-11-04T19:32:47.637Z,48.23
2018-11-04T19:35:17.780Z,45.95
2018-11-04T19:37:47.395Z,45.97
2018-11-04T19:40:17.604Z,47.23
2018-11-04T19:42:47.127Z,48.07
2018-11-04T19:45:17.124Z,49.37
2018-11-04T19:47:46.966Z,47.43
2018-11-04T19:50:16.660Z,48.03
2018-11-04T19:55:27.593Z,48.37
2018-11-04T19:57:57.192Z,49.80
2018-11-04T20:00:26.750Z,49.98
2018-11-04T20:02:56.455Z,45.70
2018-11-04T20:05:26.209Z,49.67
2018-11-04T20:08:11.352Z,49.98
2018-11-04T20:10:40.937Z,51.70
2018-11-04T20:13:15.863Z,51.03
2018-11-04T20:15:45.386Z,50.57
2018-11-04T20:18:26.869Z,51.85
2018-11-04T20:20:56.528Z,47.07
2018-11-04T20:23:26.101Z,52.80
2018-11-04T20:26:02.558Z,48.43
2018-11-04T20:28:32.267Z,50.23
2018-11-04T20:31:01.782Z,49.23
2018-11-04T20:33:31.292Z,51.30
2018-11-04T20:36:01.026Z,52.20
2018-11-04T20:38:35.558Z,53.73
2018-11-04T20:41:11.513Z,51.92
2018-11-04T20:43:41.252Z,53.13
2018-11-04T20:46:11.648Z,54.15
2018-11-04T20:48:46.411Z,53.43
2018-11-04T20:51:18.806Z,54.40
2018-11-04T20:53:48.618Z,51.63
2018-11-04T20:56:23.396Z,53.20
2018-11-04T20:58:52.959Z,57.07
2018-11-04T21:01:22.671Z,53.47
2018-11-04T21:03:52.408Z,55.43
2018-11-04T21:06:22.007Z,53.27
2018-11-04T21:08:51.771Z,55.90
2018-11-04T21:11:21.602Z,51.90
2018-11-04T21:16:15.689Z,53.57
2018-11-04T21:18:45.102Z,55.50
2018-11-04T21:21:15.635Z,53.07
2018-11-04T21:23:45.347Z,56.13
2018-11-04T21:26:15.055Z,54.23
2018-11-04T21:28:44.809Z,51.37
2018-11-04T21:31:14.401Z,53.70
2018-11-04T21:33:44.793Z,54.57
2018-11-04T21:36:15.173Z,57.73
2018-11-04T21:38:47.819Z,56.90
2018-11-04T21:41:17.183Z,53.33
2018-11-04T21:43:46.790Z,56.80
2018-11-04T21:46:15.915Z,57.03
2018-11-04T21:48:46.008Z,56.80
2018-11-04T21:51:15.893Z,56.43
2018-11-04T21:53:45.218Z,58.50
2018-11-04T21:56:15.417Z,56.97
2018-11-04T21:58:45.147Z,54.70
2018-11-04T22:01:14.509Z,57.05
2018-11-04T22:03:43.922Z,57.70
2018-11-04T22:06:13.217Z,58.20
2018-11-04T22:08:42.610Z,54.77
2018-11-04T22:11:11.994Z,57.60
2018-11-04T22:13:41.389Z,56.63
2018-11-04T22:16:10.825Z,58.48
2018-11-04T22:18:40.575Z,61.03
2018-11-04T22:21:09.974Z,58.63
2018-11-04T22:23:39.376Z,55.20
2018-11-04T22:26:08.821Z,54.40
2018-11-04T22:28:38.211Z,59.67
2018-11-04T22:31:07.542Z,54.17
2018-11-04T22:33:36.886Z,59.43
2018-11-04T22:36:06.439Z,65.27
2018-11-04T22:38:35.799Z,59.00
2018-11-04T22:41:06.454Z,59.23
2018-11-04T22:43:35.927Z,61.93
2018-11-04T22:46:06.731Z,56.95
2018-11-04T22:48:39.404Z,57.90
2018-11-04T22:51:09.330Z,57.53
2018-11-04T22:53:38.705Z,60.63
2018-11-04T22:56:08.174Z,61.10
2018-11-04T22:58:37.467Z,60.37
2018-11-04T23:01:06.965Z,57.50
2018-11-04T23:03:36.328Z,62.23
2018-11-04T23:06:07.699Z,55.98
2018-11-04T23:08:37.059Z,57.93
2018-11-04T23:11:06.416Z,62.07
2018-11-04T23:13:35.769Z,60.60
2018-11-04T23:16:06.354Z,59.65
2018-11-04T23:18:35.831Z,59.33
2018-11-04T23:21:06.585Z,56.78
2018-11-04T23:23:35.938Z,56.77
2018-11-04T23:26:07.050Z,60.05
2018-11-04T23:28:36.431Z,58.93
2018-11-04T23:31:06.569Z,60.07
2018-11-04T23:33:37.826Z,58.20
2018-11-04T23:36:07.220Z,60.27
2018-11-04T23:38:36.595Z,55.37
2018-11-04T23:41:06.648Z,59.97
2018-11-04T23:43:36.042Z,58.27
2018-11-04T23:46:06.906Z,57.60
2018-11-04T23:48:36.270Z,58.28
2018-11-04T23:51:06.592Z,57.80
2018-11-04T23:53:35.930Z,65.70
2018-11-04T23:56:06.578Z,62.95
2018-11-04T23:58:36.281Z,58.67
